createdAt,value
2018-11-12T00:00:06.642Z,99.99
2018-11-12T00:01:06.635Z,99.99
2018-11-12T00:02:06.604Z,99.99
2018-11-12T00:03:06.585Z,99.99
2018-11-12T00:04:06.565Z,99.99
2018-11-12T00:05:06.546Z,99.99
2018-11-12T00:06:06.547Z,99.99
2018-11-12T00:07:06.509Z,99.99
2018-11-12T00:08:06.489Z,99.99
2018-11-12T00:09:06.482Z,99.99
2018-11-12T00:10:06.451Z,99.99
2018-11-12T00:11:06.438Z,99.99
2018-11-12T00:12:06.412Z,99.99
2018-11-12T00:13:06.408Z,99.99
2018-11-12T00:14:06.370Z,99.99
2018-11-12T00:15:06.373Z,99.99
2018-11-12T00:16:06.332Z,99.99
2018-11-12T00:17:06.316Z,99.99
2018-11-12T00:18:06.297Z,99.99
2018-11-12T00:19:06.280Z,99.99
2018-11-12T00:20:06.256Z,99.99
2018-11-12T00:21:06.246Z,99.99
2018-11-12T00:22:06.347Z,99.99
2018-11-12T00:23:06.195Z,99.99
2018-11-12T00:24:06.182Z,99.99
2018-11-12T00:25:06.159Z,99.99
2018-11-12T00:26:06.141Z,99.99
2018-11-12T00:27:06.127Z,99.99
2018-11-12T00:28:06.099Z,99.99
2018-11-12T00:29:06.080Z,99.99
2018-11-12T00:30:06.061Z,99.99
2018-11-12T00:31:06.039Z,99.99
2018-11-12T00:32:06.019Z,99.99
2018-11-12T00:33:06.004Z,99.99
2018-11-12T00:34:05.987Z,99.99
2018-11-12T00:35:05.962Z,99.99
2018-11-12T00:36:05.946Z,99.99
2018-11-12T00:37:05.927Z,99.99
2018-11-12T00:38:05.903Z,99.99
2018-11-12T00:39:05.883Z,99.99
2018-11-12T00:40:05.874Z,99.99
2018-11-12T00:41:05.844Z,99.99
2018-11-12T00:42:05.834Z,99.99
2018-11-12T00:43:05.806Z,99.99
2018-11-12T00:44:05.797Z,99.99
2018-11-12T00:45:05.771Z,99.99
2018-11-12T00:46:05.777Z,99.99
2018-11-12T00:47:05.730Z,99.99
2018-11-12T00:48:05.723Z,99.99
2018-11-12T00:49:05.692Z,99.99
2018-11-12T00:50:05.673Z,99.99
2018-11-12T00:51:05.654Z,99.99
2018-11-12T00:52:05.670Z,99.99
2018-11-12T00:53:05.615Z,99.99
2018-11-12T00:54:05.599Z,99.99
2018-11-12T00:55:05.576Z,99.99
2018-11-12T00:56:05.567Z,99.99
2018-11-12T00:57:05.552Z,99.99
2018-11-12T00:58:05.529Z,99.99
2018-11-12T00:59:05.505Z,99.99
2018-11-12T01:00:05.483Z,99.99
2018-11-12T01:01:05.471Z,99.99
2018-11-12T01:02:05.965Z,99.99
2018-11-12T01:03:05.430Z,99.99
2018-11-12T01:04:05.523Z,99.99
2018-11-12T01:05:05.390Z,99.99
2018-11-12T01:06:05.371Z,99.99
2018-11-12T01:07:05.358Z,99.99
2018-11-12T01:08:05.336Z,99.99
2018-11-12T01:09:05.316Z,99.99
2018-11-12T01:10:05.299Z,99.99
2018-11-12T01:11:05.286Z,99.99
2018-11-12T01:12:05.257Z,99.99
2018-11-12T01:13:05.241Z,99.99
2018-11-12T01:14:05.231Z,99.99
2018-11-12T01:15:05.206Z,99.99
2018-11-12T01:16:05.247Z,99.99
2018-11-12T01:17:05.172Z,99.99
2018-11-12T01:18:05.149Z,99.99
2018-11-12T01:19:05.129Z,99.99
2018-11-12T01:20:05.117Z,99.99
2018-11-12T01:21:05.100Z,99.99
2018-11-12T01:22:05.081Z,99.99
2018-11-12T01:23:05.059Z,99.99
2018-11-12T01:24:05.045Z,99.99
2018-11-12T01:25:05.020Z,99.99
2018-11-12T01:26:05.000Z,99.99
2018-11-12T01:27:04.988Z,99.99
2018-11-12T01:28:04.962Z,99.99
2018-11-12T01:29:04.943Z,99.99
2018-11-12T01:30:04.927Z,99.99
2018-11-12T01:31:04.914Z,99.99
2018-11-12T01:32:04.888Z,99.99
2018-11-12T01:33:04.868Z,99.99
2018-11-12T01:34:04.849Z,99.99
2018-11-12T01:35:04.843Z,99.99
2018-11-12T01:36:04.811Z,99.99
2018-11-12T01:37:04.803Z,99.99
2018-11-12T01:38:04.782Z,99.99
2018-11-12T01:39:04.760Z,99.99
2018-11-12T01:40:04.744Z,99.99
2018-11-12T01:41:04.721Z,99.99
2018-11-12T01:42:04.802Z,99.99
2018-11-12T01:43:04.683Z,99.99
2018-11-12T01:44:04.664Z,99.99
2018-11-12T01:45:04.645Z,99.99
2018-11-12T01:46:04.625Z,99.99
2018-11-12T01:47:04.609Z,99.99
2018-11-12T01:48:04.591Z,99.99
2018-11-12T01:49:04.570Z,99.99
2018-11-12T01:50:04.552Z,99.99
2018-11-12T01:51:04.539Z,99.99
2018-11-12T01:52:04.523Z,99.99
2018-11-12T01:53:04.497Z,99.99
2018-11-12T01:54:04.482Z,99.99
2018-11-12T01:55:04.467Z,99.99
2018-11-12T01:56:04.449Z,99.99
2018-11-12T01:57:04.423Z,99.99
2018-11-12T01:58:04.407Z,99.99
2018-11-12T01:59:04.396Z,99.99
2018-11-12T02:00:04.369Z,99.99
2018-11-12T02:01:04.356Z,99.99
2018-11-12T02:02:04.334Z,99.99
2018-11-12T02:03:04.315Z,99.99
2018-11-12T02:04:04.293Z,99.99
2018-11-12T02:05:04.372Z,99.99
2018-11-12T02:06:04.258Z,99.99
2018-11-12T02:07:04.239Z,99.99
2018-11-12T02:08:04.221Z,99.99
2018-11-12T02:09:04.270Z,99.99
2018-11-12T02:10:04.196Z,99.99
2018-11-12T02:11:04.172Z,99.99
2018-11-12T02:12:04.147Z,99.99
2018-11-12T02:13:04.134Z,99.99
2018-11-12T02:14:04.108Z,99.99
2018-11-12T02:15:04.115Z,99.99
2018-11-12T02:16:04.077Z,99.99
2018-11-12T02:17:04.061Z,99.99
2018-11-12T02:18:04.042Z,99.99
2018-11-12T02:19:04.023Z,99.99
2018-11-12T02:20:04.000Z,99.99
2018-11-12T02:21:03.988Z,99.99
2018-11-12T02:22:03.968Z,99.99
2018-11-12T02:23:03.948Z,99.76
2018-11-12T02:24:03.926Z,99.96
2018-11-12T02:25:03.911Z,99.99
2018-11-12T02:26:03.888Z,99.86
2018-11-12T02:27:03.869Z,99.29
2018-11-12T02:28:03.863Z,99.00
2018-11-12T02:29:03.841Z,99.10
2018-11-12T02:30:03.821Z,99.86
2018-11-12T02:31:03.804Z,99.00
2018-11-12T02:32:03.786Z,99.00
2018-11-12T02:33:03.777Z,97.95
2018-11-12T02:34:03.745Z,98.14
2018-11-12T02:35:03.748Z,98.43
2018-11-12T02:36:03.713Z,98.61
2018-11-12T02:37:03.691Z,98.71
2018-11-12T02:38:03.685Z,98.24
2018-11-12T02:39:03.652Z,98.24
2018-11-12T02:40:03.636Z,98.14
2018-11-12T02:41:03.620Z,98.24
2018-11-12T02:42:03.598Z,98.24
2018-11-12T02:43:03.582Z,98.04
2018-11-12T02:44:03.566Z,97.28
2018-11-12T02:45:03.547Z,97.18
2018-11-12T02:46:03.527Z,97.42
2018-11-12T02:47:03.514Z,97.47
2018-11-12T02:48:03.497Z,96.99
2018-11-12T02:49:03.477Z,97.37
2018-11-12T02:50:03.483Z,98.90
2018-11-12T02:51:03.441Z,98.71
2018-11-12T02:52:03.430Z,99.00
2018-11-12T02:53:03.401Z,98.24
2018-11-12T02:54:03.404Z,98.24
2018-11-12T02:55:03.374Z,98.14
2018-11-12T02:56:03.353Z,98.33
2018-11-12T02:57:03.333Z,98.33
2018-11-12T02:58:03.311Z,98.52
2018-11-12T02:59:03.301Z,98.71
2018-11-12T03:00:03.284Z,99.10
2018-11-12T03:01:03.267Z,99.10
2018-11-12T03:02:03.259Z,99.00
2018-11-12T03:03:03.229Z,99.99
2018-11-12T03:04:03.213Z,99.99
2018-11-12T03:05:03.197Z,99.04
2018-11-12T03:06:03.174Z,98.90
2018-11-12T03:07:03.152Z,99.19
2018-11-12T03:08:03.139Z,98.90
2018-11-12T03:09:03.120Z,98.43
2018-11-12T03:10:03.100Z,98.71
2018-11-12T03:11:04.001Z,98.14
2018-11-12T03:12:03.062Z,98.71
2018-11-12T03:13:03.055Z,98.71
2018-11-12T03:14:03.027Z,98.33
2018-11-12T03:15:03.013Z,98.90
2018-11-12T03:16:02.991Z,98.61
2018-11-12T03:17:02.975Z,98.61
2018-11-12T03:18:02.953Z,98.71
2018-11-12T03:19:02.943Z,98.81
2018-11-12T03:20:02.924Z,98.90
2018-11-12T03:21:02.903Z,98.71
2018-11-12T03:22:03.508Z,98.90
2018-11-12T03:23:02.874Z,98.52
2018-11-12T03:24:02.857Z,98.71
2018-11-12T03:25:02.839Z,98.71
2018-11-12T03:26:02.810Z,98.52
2018-11-12T03:27:02.800Z,99.29
2018-11-12T03:28:02.775Z,99.14
2018-11-12T03:29:02.759Z,98.71
2018-11-12T03:30:02.752Z,99.33
2018-11-12T03:31:02.727Z,99.29
2018-11-12T03:32:02.704Z,99.29
2018-11-12T03:33:02.691Z,98.66
2018-11-12T03:34:02.671Z,99.04
2018-11-12T03:35:02.652Z,98.90
2018-11-12T03:36:02.633Z,98.90
2018-11-12T03:37:02.621Z,99.29
2018-11-12T03:38:02.602Z,98.71
2018-11-12T03:39:02.580Z,98.61
2018-11-12T03:40:02.566Z,98.81
2018-11-12T03:41:02.552Z,98.81
2018-11-12T03:42:02.531Z,98.43
2018-11-12T03:43:02.515Z,98.90
2018-11-12T03:44:02.503Z,99.99
2018-11-12T03:45:02.473Z,99.99
2018-11-12T03:46:02.457Z,99.99
2018-11-12T03:47:02.438Z,99.99
2018-11-12T03:48:02.425Z,99.99
2018-11-12T03:49:02.404Z,99.99
2018-11-12T03:50:02.398Z,99.99
2018-11-12T03:51:02.366Z,99.99
2018-11-12T03:52:02.354Z,99.99
2018-11-12T03:53:02.338Z,99.99
2018-11-12T03:54:02.307Z,99.99
2018-11-12T03:55:02.291Z,99.99
2018-11-12T03:56:02.284Z,99.99
2018-11-12T03:57:02.265Z,99.99
2018-11-12T03:58:02.242Z,99.99
2018-11-12T03:59:02.230Z,99.99
2018-11-12T04:00:02.245Z,99.99
2018-11-12T04:01:02.191Z,99.99
2018-11-12T04:02:02.171Z,99.99
2018-11-12T04:03:02.153Z,99.99
2018-11-12T04:04:02.137Z,99.90
2018-11-12T04:05:02.118Z,98.81
2018-11-12T04:06:02.098Z,99.10
2018-11-12T04:07:02.089Z,98.33
2018-11-12T04:08:02.074Z,97.85
2018-11-12T04:09:02.056Z,98.43
2018-11-12T04:10:02.034Z,98.61
2018-11-12T04:11:02.011Z,98.24
2018-11-12T04:12:02.053Z,98.24
2018-11-12T04:13:01.977Z,98.90
2018-11-12T04:14:01.958Z,99.00
2018-11-12T04:15:01.941Z,98.52
2018-11-12T04:16:01.928Z,99.00
2018-11-12T04:17:01.904Z,98.43
2018-11-12T04:18:01.899Z,98.14
2018-11-12T04:19:01.877Z,98.71
2018-11-12T04:20:01.857Z,98.52
2018-11-12T04:21:01.841Z,98.04
2018-11-12T04:22:01.817Z,98.24
2018-11-12T04:23:01.811Z,98.61
2018-11-12T04:24:01.817Z,97.85
2018-11-12T04:25:01.770Z,98.52
2018-11-12T04:26:01.748Z,98.14
2018-11-12T04:27:01.729Z,99.00
2018-11-12T04:28:01.716Z,97.95
2018-11-12T04:29:01.697Z,98.14
2018-11-12T04:30:01.675Z,98.14
2018-11-12T04:31:01.665Z,97.95
2018-11-12T04:32:01.648Z,98.33
2018-11-12T04:33:01.630Z,97.28
2018-11-12T04:34:01.616Z,98.04
2018-11-12T04:35:01.590Z,97.95
2018-11-12T04:36:01.581Z,98.33
2018-11-12T04:37:01.559Z,98.24
2018-11-12T04:38:01.538Z,97.85
2018-11-12T04:39:01.529Z,98.43
2018-11-12T04:40:01.505Z,98.52
2018-11-12T04:41:01.519Z,97.95
2018-11-12T04:42:01.468Z,98.52
2018-11-12T04:43:01.448Z,98.33
2018-11-12T04:44:01.432Z,98.04
2018-11-12T04:45:01.418Z,97.85
2018-11-12T04:46:01.404Z,99.00
2018-11-12T04:47:01.378Z,98.71
2018-11-12T04:48:01.363Z,98.24
2018-11-12T04:49:01.348Z,98.33
2018-11-12T04:50:01.337Z,98.14
2018-11-12T04:51:01.311Z,98.81
2018-11-12T04:52:01.298Z,98.24
2018-11-12T04:53:01.280Z,98.04
2018-11-12T04:54:01.263Z,97.28
2018-11-12T04:55:01.292Z,98.81
2018-11-12T04:56:01.224Z,99.10
2018-11-12T04:57:01.205Z,98.52
2018-11-12T04:58:01.186Z,98.61
2018-11-12T04:59:01.170Z,98.04
2018-11-12T05:00:01.156Z,98.33
2018-11-12T05:01:01.142Z,96.80
2018-11-12T05:02:01.161Z,96.27
2018-11-12T05:03:01.110Z,95.41
2018-11-12T05:04:01.087Z,95.79
2018-11-12T05:05:01.072Z,96.56
2018-11-12T05:06:01.046Z,94.93
2018-11-12T05:07:01.034Z,95.03
2018-11-12T05:08:01.018Z,94.74
2018-11-12T05:09:01.002Z,94.93
2018-11-12T05:10:00.976Z,95.61
2018-11-12T05:11:00.961Z,94.93
2018-11-12T05:12:00.941Z,96.08
2018-11-12T05:13:00.924Z,95.22
2018-11-12T05:14:00.906Z,95.41
2018-11-12T05:15:00.888Z,95.70
2018-11-12T05:16:00.872Z,95.61
2018-11-12T05:17:00.862Z,95.22
2018-11-12T05:18:00.836Z,95.12
2018-11-12T05:19:00.827Z,95.51
2018-11-12T05:20:00.801Z,95.41
2018-11-12T05:21:00.788Z,95.70
2018-11-12T05:22:00.777Z,95.89
2018-11-12T05:23:00.750Z,97.71
2018-11-12T05:24:00.734Z,97.56
2018-11-12T05:25:00.724Z,97.56
2018-11-12T05:26:00.697Z,98.90
2018-11-12T05:27:00.681Z,98.33
2018-11-12T05:28:00.668Z,97.37
2018-11-12T05:29:00.646Z,99.19
2018-11-12T05:30:00.627Z,98.04
2018-11-12T05:31:00.615Z,98.14
2018-11-12T05:32:00.591Z,98.81
2018-11-12T05:33:00.578Z,99.29
2018-11-12T05:34:00.560Z,99.19
2018-11-12T05:35:00.544Z,99.99
2018-11-12T05:36:00.544Z,99.48
2018-11-12T05:37:00.512Z,98.38
2018-11-12T05:38:00.519Z,97.37
2018-11-12T05:39:00.478Z,97.66
2018-11-12T05:40:00.456Z,96.80
2018-11-12T05:41:00.443Z,96.42
2018-11-12T05:42:00.417Z,95.61
2018-11-12T05:43:00.408Z,95.51
2018-11-12T05:44:00.385Z,95.41
2018-11-12T05:45:00.490Z,96.56
2018-11-12T05:46:00.373Z,95.12
2018-11-12T05:47:00.334Z,94.84
2018-11-12T05:48:00.328Z,94.74
2018-11-12T05:49:00.301Z,95.12
2018-11-12T05:50:00.286Z,94.45
2018-11-12T05:51:00.263Z,94.55
2018-11-12T05:52:00.244Z,94.74
2018-11-12T05:53:00.237Z,94.55
2018-11-12T05:54:00.209Z,93.98
2018-11-12T05:55:00.193Z,93.79
2018-11-12T05:56:00.173Z,93.88
2018-11-12T05:57:00.164Z,93.50
2018-11-12T05:58:00.141Z,93.50
2018-11-12T05:59:00.237Z,93.93
2018-11-12T06:00:00.111Z,93.64
2018-11-12T06:01:00.093Z,93.26
2018-11-12T06:02:00.071Z,93.16
2018-11-12T06:03:00.064Z,93.45
2018-11-12T06:04:00.035Z,92.40
2018-11-12T06:05:00.104Z,92.30
2018-11-12T06:06:00.007Z,92.68
2018-11-12T06:06:59.985Z,92.40
2018-11-12T06:07:59.977Z,91.82
2018-11-12T06:08:59.952Z,92.11
2018-11-12T06:09:59.936Z,92.11
2018-11-12T06:10:59.913Z,91.82
2018-11-12T06:11:59.904Z,92.30
2018-11-12T06:12:59.893Z,91.82
2018-11-12T06:13:59.869Z,92.40
2018-11-12T06:14:59.850Z,92.87
2018-11-12T06:15:59.833Z,92.97
2018-11-12T06:16:59.815Z,92.01
2018-11-12T06:17:59.795Z,92.58
2018-11-12T06:18:59.776Z,92.21
2018-11-12T06:19:59.785Z,92.40
2018-11-12T06:20:59.759Z,92.49
2018-11-12T06:21:59.724Z,93.07
2018-11-12T06:22:59.737Z,92.40
2018-11-12T06:23:59.692Z,92.30
2018-11-12T06:24:59.673Z,92.54
2018-11-12T06:25:59.664Z,92.58
2018-11-12T06:26:59.641Z,93.45
2018-11-12T06:27:59.634Z,93.35
2018-11-12T06:28:59.616Z,93.02
2018-11-12T06:29:59.593Z,93.88
2018-11-12T06:30:59.638Z,93.02
2018-11-12T06:31:59.567Z,93.40
2018-11-12T06:32:59.542Z,93.40
2018-11-12T06:34:00.071Z,92.54
2018-11-12T06:34:59.502Z,92.83
2018-11-12T06:35:59.486Z,92.63
2018-11-12T06:36:59.476Z,93.59
2018-11-12T06:37:59.454Z,93.45
2018-11-12T06:38:59.435Z,93.98
2018-11-12T06:39:59.419Z,93.12
2018-11-12T06:40:59.406Z,92.54
2018-11-12T06:41:59.383Z,92.92
2018-11-12T06:42:59.427Z,92.21
2018-11-12T06:43:59.348Z,92.21
2018-11-12T06:44:59.335Z,92.40
2018-11-12T06:45:59.316Z,91.92
2018-11-12T06:46:59.295Z,91.05
2018-11-12T06:47:59.278Z,90.67
2018-11-12T06:48:59.264Z,91.05
2018-11-12T06:49:59.250Z,91.34
2018-11-12T06:50:59.234Z,89.76
2018-11-12T06:51:59.221Z,89.86
2018-11-12T06:52:59.280Z,90.05
2018-11-12T06:53:59.177Z,88.51
2018-11-12T06:54:59.177Z,89.09
2018-11-12T06:55:59.144Z,88.70
2018-11-12T06:56:59.132Z,88.32
2018-11-12T06:57:59.115Z,88.80
2018-11-12T06:58:59.097Z,89.28
2018-11-12T06:59:59.077Z,89.47
2018-11-12T07:00:59.144Z,89.37
2018-11-12T07:01:59.039Z,88.42
2018-11-12T07:02:59.032Z,89.18
2018-11-12T07:03:59.013Z,89.86
2018-11-12T07:04:58.997Z,89.86
2018-11-12T07:05:58.975Z,90.43
2018-11-12T07:06:59.013Z,90.23
2018-11-12T07:07:58.937Z,90.14
2018-11-12T07:08:58.930Z,90.58
2018-11-12T07:09:58.908Z,90.48
2018-11-12T07:10:58.889Z,90.96
2018-11-12T07:11:58.872Z,90.77
2018-11-12T07:12:58.861Z,90.67
2018-11-12T07:13:58.845Z,91.05
2018-11-12T07:14:58.827Z,91.25
2018-11-12T07:15:58.809Z,91.25
2018-11-12T07:16:58.796Z,92.21
2018-11-12T07:17:58.777Z,91.05
2018-11-12T07:18:58.793Z,90.86
2018-11-12T07:19:58.745Z,91.15
2018-11-12T07:20:58.724Z,89.90
2018-11-12T07:21:58.712Z,89.62
2018-11-12T07:22:58.689Z,89.62
2018-11-12T07:23:58.673Z,89.62
2018-11-12T07:24:58.688Z,89.81
2018-11-12T07:25:58.641Z,88.90
2018-11-12T07:26:58.625Z,88.42
2018-11-12T07:27:58.602Z,88.51
2018-11-12T07:28:58.596Z,88.32
2018-11-12T07:29:58.580Z,87.94
2018-11-12T07:30:58.664Z,87.65
2018-11-12T07:31:58.532Z,87.46
2018-11-12T07:32:58.522Z,87.17
2018-11-12T07:33:58.498Z,87.46
2018-11-12T07:34:58.482Z,87.74
2018-11-12T07:35:58.475Z,88.03
2018-11-12T07:36:58.450Z,88.13
2018-11-12T07:37:58.452Z,89.28
2018-11-12T07:38:58.421Z,89.09
2018-11-12T07:39:58.405Z,89.66
2018-11-12T07:40:58.389Z,88.03
2018-11-12T07:41:58.397Z,87.94
2018-11-12T07:42:58.351Z,88.13
2018-11-12T07:43:58.339Z,88.23
2018-11-12T07:44:58.318Z,87.74
2018-11-12T07:45:58.305Z,88.13
2018-11-12T07:46:58.282Z,88.90
2018-11-12T07:47:58.273Z,89.09
2018-11-12T07:48:58.250Z,88.90
2018-11-12T07:49:58.231Z,88.51
2018-11-12T07:50:58.215Z,88.61
2018-11-12T07:51:58.199Z,88.61
2018-11-12T07:52:58.183Z,87.74
2018-11-12T07:53:58.174Z,88.23
2018-11-12T07:54:58.151Z,88.42
2018-11-12T07:55:58.139Z,88.23
2018-11-12T07:56:58.119Z,88.99
2018-11-12T07:57:58.102Z,88.03
2018-11-12T07:58:58.085Z,87.84
2018-11-12T07:59:58.067Z,87.94
2018-11-12T08:00:58.057Z,88.03
2018-11-12T08:01:58.037Z,88.70
2018-11-12T08:02:58.060Z,88.23
2018-11-12T08:03:58.003Z,88.32
2018-11-12T08:04:57.983Z,89.47
2018-11-12T08:05:57.967Z,88.70
2018-11-12T08:06:57.961Z,88.61
2018-11-12T08:07:57.932Z,86.98
2018-11-12T08:08:57.980Z,86.88
2018-11-12T08:09:57.905Z,85.78
2018-11-12T08:10:57.893Z,85.01
2018-11-12T08:11:57.914Z,85.11
2018-11-12T08:12:57.851Z,85.01
2018-11-12T08:13:57.835Z,85.01
2018-11-12T08:14:57.857Z,84.82
2018-11-12T08:15:57.806Z,84.25
2018-11-12T08:16:57.810Z,84.25
2018-11-12T08:17:57.768Z,84.25
2018-11-12T08:18:57.752Z,85.01
2018-11-12T08:19:57.739Z,84.53
2018-11-12T08:20:57.719Z,84.82
2018-11-12T08:21:57.703Z,85.30
2018-11-12T08:22:57.690Z,85.78
2018-11-12T08:23:57.687Z,85.88
2018-11-12T08:24:57.662Z,85.39
2018-11-12T08:25:57.645Z,85.78
2018-11-12T08:26:57.626Z,85.68
2018-11-12T08:27:57.604Z,85.01
2018-11-12T08:28:57.588Z,85.83
2018-11-12T08:29:57.633Z,86.88
2018-11-12T08:30:57.563Z,86.50
2018-11-12T08:31:57.550Z,86.21
2018-11-12T08:32:57.596Z,86.12
2018-11-12T08:33:57.508Z,85.64
2018-11-12T08:34:57.499Z,85.74
2018-11-12T08:35:57.479Z,85.83
2018-11-12T08:36:57.460Z,85.93
2018-11-12T08:37:57.443Z,86.79
2018-11-12T08:38:57.447Z,87.08
2018-11-12T08:39:57.485Z,86.12
2018-11-12T08:40:57.440Z,87.27
2018-11-12T08:41:57.379Z,87.08
2018-11-12T08:42:57.370Z,87.17
2018-11-12T08:43:57.351Z,86.41
2018-11-12T08:44:57.329Z,87.27
2018-11-12T08:45:57.361Z,85.64
2018-11-12T08:46:57.311Z,86.35
2018-11-12T08:47:57.280Z,86.41
2018-11-12T08:48:57.366Z,87.12
2018-11-12T08:49:57.264Z,87.17
2018-11-12T08:50:57.236Z,86.54
2018-11-12T08:51:57.222Z,86.64
2018-11-12T08:52:57.205Z,85.74
2018-11-12T08:53:57.203Z,86.07
2018-11-12T08:54:57.289Z,85.58
2018-11-12T08:55:57.155Z,84.91
2018-11-12T08:56:57.137Z,84.34
2018-11-12T08:57:57.155Z,85.01
2018-11-12T08:58:57.119Z,85.30
2018-11-12T08:59:57.090Z,85.39
2018-11-12T09:00:57.137Z,86.16
2018-11-12T09:01:57.060Z,85.78
2018-11-12T09:02:57.038Z,85.68
2018-11-12T09:03:57.083Z,85.30
2018-11-12T09:04:57.014Z,85.78
2018-11-12T09:05:57.006Z,85.30
2018-11-12T09:06:56.971Z,85.39
2018-11-12T09:07:56.962Z,85.30
2018-11-12T09:08:56.946Z,85.78
2018-11-12T09:09:56.960Z,85.68
2018-11-12T09:10:56.934Z,85.11
2018-11-12T09:11:56.897Z,86.07
2018-11-12T09:12:56.877Z,85.88
2018-11-12T09:13:56.863Z,86.07
2018-11-12T09:14:56.851Z,85.49
2018-11-12T09:15:56.831Z,85.49
2018-11-12T09:16:56.819Z,85.78
2018-11-12T09:17:56.800Z,84.91
2018-11-12T09:18:56.784Z,84.05
2018-11-12T09:19:56.761Z,83.48
2018-11-12T09:20:56.752Z,83.00
2018-11-12T09:21:56.729Z,82.90
2018-11-12T09:22:56.777Z,82.27
2018-11-12T09:23:56.697Z,82.94
2018-11-12T09:24:56.690Z,82.65
2018-11-12T09:25:56.662Z,83.04
2018-11-12T09:26:56.649Z,82.94
2018-11-12T09:27:56.642Z,81.98
2018-11-12T09:28:56.617Z,82.65
2018-11-12T09:29:56.601Z,82.46
2018-11-12T09:30:57.590Z,83.14
2018-11-12T09:31:56.570Z,82.08
2018-11-12T09:32:56.554Z,82.56
2018-11-12T09:34:56.525Z,82.94
2018-11-12T09:35:56.510Z,82.46
2018-11-12T09:36:56.624Z,82.37
2018-11-12T09:37:56.499Z,81.79
2018-11-12T09:40:56.438Z,80.93
2018-11-12T09:41:56.420Z,81.51
2018-11-12T09:42:56.399Z,82.18
2018-11-12T09:43:56.378Z,82.08
2018-11-12T09:44:56.365Z,82.37
2018-11-12T09:45:56.351Z,82.18
2018-11-12T09:46:56.335Z,82.65
2018-11-12T09:47:56.418Z,82.56
2018-11-12T09:48:56.313Z,81.51
2018-11-12T09:49:56.285Z,81.79
2018-11-12T09:50:56.276Z,81.12
2018-11-12T09:51:56.251Z,81.60
2018-11-12T09:52:56.237Z,81.70
2018-11-12T09:53:56.285Z,82.37
2018-11-12T09:54:56.226Z,81.98
2018-11-12T09:55:56.195Z,83.14
2018-11-12T09:56:56.177Z,82.56
2018-11-12T09:57:56.158Z,82.46
2018-11-12T09:58:56.139Z,83.04
2018-11-12T09:59:56.194Z,82.85
2018-11-12T10:00:56.604Z,82.75
2018-11-12T10:01:56.857Z,83.42
2018-11-12T10:02:57.338Z,81.60
2018-11-12T10:03:57.345Z,82.94
2018-11-12T10:04:57.750Z,82.08
2018-11-12T10:05:57.454Z,81.89
2018-11-12T10:06:57.063Z,82.18
2018-11-12T10:07:58.475Z,81.89
2018-11-12T10:08:57.486Z,82.27
2018-11-12T10:09:57.867Z,82.46
2018-11-12T10:10:59.199Z,82.37
2018-11-12T10:11:58.140Z,82.37
2018-11-12T10:12:57.395Z,81.22
2018-11-12T10:13:57.597Z,81.31
2018-11-12T10:14:57.698Z,80.35
2018-11-12T10:15:58.023Z,80.78
2018-11-12T10:16:58.868Z,80.97
2018-11-12T10:17:58.819Z,82.21
2018-11-12T10:18:55.837Z,81.64
2018-11-12T10:19:55.813Z,82.56
2018-11-12T10:20:55.796Z,81.22
2018-11-12T10:21:55.784Z,82.08
2018-11-12T10:22:55.765Z,81.02
2018-11-12T10:23:55.755Z,81.60
2018-11-12T10:24:55.741Z,81.26
2018-11-12T10:25:55.716Z,81.74
2018-11-12T10:26:55.711Z,81.54
2018-11-12T10:27:55.689Z,81.54
2018-11-12T10:28:55.676Z,80.68
2018-11-12T10:29:55.664Z,81.16
2018-11-12T10:30:55.659Z,80.87
2018-11-12T10:31:55.639Z,80.97
2018-11-12T10:32:55.612Z,82.03
2018-11-12T10:33:55.608Z,81.07
2018-11-12T10:34:55.583Z,81.26
2018-11-12T10:35:55.574Z,81.74
2018-11-12T10:36:55.553Z,81.84
2018-11-12T10:37:55.536Z,81.84
2018-11-12T10:38:55.523Z,81.26
2018-11-12T10:39:55.507Z,81.54
2018-11-12T10:40:55.584Z,81.45
2018-11-12T10:41:55.483Z,81.35
2018-11-12T10:42:55.462Z,81.16
2018-11-12T10:43:55.451Z,81.54
2018-11-12T10:44:55.455Z,80.97
2018-11-12T10:45:55.417Z,80.97
2018-11-12T10:46:55.415Z,81.16
2018-11-12T10:47:55.448Z,80.53
2018-11-12T10:48:55.372Z,80.43
2018-11-12T10:49:55.360Z,80.30
2018-11-12T10:51:04.595Z,80.05
2018-11-12T10:51:55.330Z,80.34
2018-11-12T10:52:55.314Z,81.20
2018-11-12T10:53:55.375Z,80.15
2018-11-12T10:55:04.901Z,82.35
2018-11-12T10:55:55.396Z,81.40
2018-11-12T10:56:55.256Z,81.49
2018-11-12T10:57:55.243Z,80.43
2018-11-12T10:58:55.230Z,79.28
2018-11-12T10:59:55.212Z,80.43
2018-11-12T11:00:55.254Z,80.15
2018-11-12T11:01:55.182Z,79.28
2018-11-12T11:02:55.166Z,79.09
2018-11-12T11:03:55.160Z,78.80
2018-11-12T11:04:55.144Z,78.32
2018-11-12T11:05:55.128Z,79.76
2018-11-12T11:06:55.108Z,79.38
2018-11-12T11:07:55.098Z,79.86
2018-11-12T11:08:55.086Z,79.42
2018-11-12T11:09:55.079Z,78.70
2018-11-12T11:10:55.057Z,77.59
2018-11-12T11:11:55.035Z,77.88
2018-11-12T11:12:55.022Z,77.78
2018-11-12T11:13:55.013Z,76.54
2018-11-12T11:14:54.994Z,76.64
2018-11-12T11:15:54.981Z,76.06
2018-11-12T11:16:54.968Z,76.64
2018-11-12T11:17:54.954Z,77.11
2018-11-12T11:18:54.936Z,76.34
2018-11-12T11:19:54.929Z,75.77
2018-11-12T11:20:54.911Z,76.25
2018-11-12T11:21:54.900Z,76.34
2018-11-12T11:22:54.884Z,76.44
2018-11-12T11:23:54.871Z,76.06
2018-11-12T11:24:54.853Z,76.44
2018-11-12T11:25:54.841Z,76.64
2018-11-12T11:26:54.820Z,76.73
2018-11-12T11:27:54.808Z,76.64
2018-11-12T11:28:54.800Z,76.54
2018-11-12T11:29:54.785Z,77.50
2018-11-12T11:30:54.821Z,77.40
2018-11-12T11:31:54.750Z,76.92
2018-11-12T11:32:54.737Z,78.13
2018-11-12T11:33:54.724Z,77.98
2018-11-12T11:34:54.704Z,77.50
2018-11-12T11:35:54.690Z,76.69
2018-11-12T11:36:54.681Z,77.26
2018-11-12T11:37:54.702Z,77.65
2018-11-12T11:38:54.652Z,77.65
2018-11-12T11:39:54.636Z,77.65
2018-11-12T11:40:54.703Z,77.17
2018-11-12T11:41:54.611Z,76.98
2018-11-12T11:42:54.596Z,77.08
2018-11-12T11:43:54.607Z,78.80
2018-11-12T11:44:54.559Z,77.98
2018-11-12T11:45:54.549Z,77.78
2018-11-12T11:46:54.534Z,77.75
2018-11-12T11:47:54.575Z,77.75
2018-11-12T11:48:54.536Z,77.75
2018-11-12T11:49:54.734Z,78.13
2018-11-12T11:50:54.471Z,79.96
2018-11-12T11:51:54.464Z,79.28
2018-11-12T11:52:54.445Z,79.86
2018-11-12T11:53:54.426Z,79.28
2018-11-12T11:54:54.413Z,78.90
2018-11-12T11:55:54.403Z,78.80
2018-11-12T11:56:54.506Z,78.17
2018-11-12T11:57:54.378Z,78.17
2018-11-12T11:58:54.363Z,78.03
2018-11-12T11:59:54.346Z,78.03
2018-11-12T12:00:54.376Z,77.36
2018-11-12T12:01:54.317Z,77.46
2018-11-12T12:02:54.327Z,77.78
2018-11-12T12:03:54.280Z,78.08
2018-11-12T12:04:54.273Z,78.17
2018-11-12T12:05:54.260Z,79.90
2018-11-12T12:06:54.244Z,77.78
2018-11-12T12:07:54.224Z,77.31
2018-11-12T12:08:54.294Z,77.69
2018-11-12T12:09:54.199Z,78.08
2018-11-12T12:10:54.187Z,78.65
2018-11-12T12:11:54.168Z,77.88
2018-11-12T12:12:54.159Z,77.59
2018-11-12T12:13:54.139Z,78.36
2018-11-12T12:14:54.129Z,77.59
2018-11-12T12:15:54.109Z,77.88
2018-11-12T12:16:54.094Z,78.55
2018-11-12T12:17:54.083Z,78.75
2018-11-12T12:18:54.066Z,79.42
2018-11-12T12:19:54.230Z,78.80
2018-11-12T12:20:54.042Z,78.70
2018-11-12T12:21:54.024Z,78.55
2018-11-12T12:22:54.008Z,79.32
2018-11-12T12:23:53.998Z,78.99
2018-11-12T12:24:54.048Z,79.42
2018-11-12T12:25:54.009Z,78.70
2018-11-12T12:26:53.950Z,78.80
2018-11-12T12:27:53.937Z,78.99
2018-11-12T12:28:53.924Z,78.80
2018-11-12T12:29:53.912Z,78.23
2018-11-12T12:30:53.892Z,80.63
2018-11-12T12:31:53.875Z,81.59
2018-11-12T12:32:53.862Z,83.22
2018-11-12T12:33:53.846Z,82.16
2018-11-12T12:34:53.843Z,80.34
2018-11-12T12:35:53.864Z,81.49
2018-11-12T12:36:53.928Z,81.68
2018-11-12T12:37:53.799Z,81.30
2018-11-12T12:38:53.772Z,81.87
2018-11-12T12:39:53.769Z,81.78
2018-11-12T12:40:53.753Z,86.00
2018-11-12T12:41:53.737Z,88.74
2018-11-12T12:42:53.721Z,88.93
2018-11-12T12:43:53.705Z,89.22
2018-11-12T12:44:53.801Z,90.95
2018-11-12T12:45:53.824Z,91.42
2018-11-12T12:46:53.662Z,86.88
2018-11-12T12:47:53.648Z,85.67
2018-11-12T12:48:53.633Z,85.25
2018-11-12T12:49:53.620Z,84.33
2018-11-12T12:50:53.597Z,84.23
2018-11-12T12:51:53.591Z,85.19
2018-11-12T12:52:53.575Z,85.00
2018-11-12T12:53:53.553Z,85.00
2018-11-12T12:54:53.543Z,86.05